Time;durP1;ratioP1;P1;durP2;ratioP2;P2;SDS_P1;SDS_P2;PMS_P1;PMS_P2;Temp;Humidity;BMP_temperature;BMP_pressure;BME280_temperature;BME280_humidity;BME280_pressure;Samples;Min_cycle;Max_cycle;Signal;HPM_P1;HPM_P2
2022/01/08 00:00:33;;;;;;;6.55;2.13;;;1.10;99.90;;;;;;2170159;65;20213;-74
2022/01/08 00:03:15;;;;;;;6.28;2.40;;;1.00;99.90;;;;;;2158144;66;20337;-73
2022/01/08 00:05:57;;;;;;;6.80;2.72;;;1.00;99.90;;;;;;2146433;66;20829;-73
2022/01/08 00:08:39;;;;;;;6.65;2.33;;;1.00;99.90;;;;;;2154440;66;20739;-75
2022/01/08 00:11:25;;;;;;;4.53;2.20;;;1.00;99.90;;;;;;2156073;66;20199;-74
2022/01/08 00:14:06;;;;;;;7.57;2.30;;;1.00;99.90;;;;;;2151493;66;20221;-73
2022/01/08 00:16:52;;;;;;;7.70;2.20;;;1.00;99.90;;;;;;2138923;66;20380;-75
2022/01/08 00:19:37;;;;;;;7.43;2.60;;;1.00;99.90;;;;;;2145583;66;20269;-75
2022/01/08 00:22:19;;;;;;;3.30;1.90;;;1.10;99.90;;;;;;2154200;66;20248;-74
2022/01/08 00:25:00;;;;;;;6.13;2.38;;;1.20;99.90;;;;;;2153944;66;20607;-74
2022/01/08 00:27:42;;;;;;;7.15;2.38;;;1.10;99.90;;;;;;2147030;66;20178;-74
2022/01/08 00:30:24;;;;;;;5.68;1.73;;;1.10;99.90;;;;;;2163796;65;20264;-74
2022/01/08 00:33:05;;;;;;;3.08;2.30;;;1.10;99.90;;;;;;2168862;65;20188;-74
2022/01/08 00:35:47;;;;;;;6.57;3.22;;;1.10;99.90;;;;;;2144732;66;20208;-74
2022/01/08 00:38:29;;;;;;;7.07;2.08;;;1.00;99.90;;;;;;2147790;66;20653;-74
2022/01/08 00:41:11;;;;;;;3.97;1.95;;;1.00;99.90;;;;;;2157475;66;20239;-74
2022/01/08 00:43:54;;;;;;;6.50;2.70;;;1.00;99.90;;;;;;2140982;66;20248;-74
2022/01/08 00:46:35;;;;;;;6.30;2.40;;;1.00;99.90;;;;;;2135351;67;20737;-74
2022/01/08 00:49:17;;;;;;;3.72;2.20;;;1.00;99.90;;;;;;2138756;66;20246;-74
2022/01/08 00:51:58;;;;;;;4.95;2.65;;;0.90;99.90;;;;;;2134436;67;20167;-74
2022/01/08 00:54:39;;;;;;;3.28;2.28;;;0.90;99.90;;;;;;2146756;66;20311;-74
2022/01/08 00:57:21;;;;;;;7.32;3.05;;;0.90;99.90;;;;;;2141412;66;20742;-75
2022/01/08 01:00:09;;;;;;;8.45;2.88;;;0.90;99.90;;;;;;2135618;67;20253;-74
2022/01/08 01:02:53;;;;;;;5.28;3.63;;;0.80;99.90;;;;;;2129905;67;20183;-74
2022/01/08 01:05:39;;;;;;;6.47;2.60;;;0.80;99.90;;;;;;2125153;67;20349;-73
2022/01/08 01:08:23;;;;;;;7.60;2.75;;;0.80;99.90;;;;;;2118036;67;20342;-74
2022/01/08 01:11:05;;;;;;;6.15;3.15;;;0.80;99.90;;;;;;2114166;67;20192;-74
2022/01/08 01:13:46;;;;;;;7.18;2.67;;;0.90;99.90;;;;;;2114769;67;20394;-74
2022/01/08 01:16:27;;;;;;;5.63;3.15;;;1.00;99.90;;;;;;2114456;67;21944;-74
2022/01/08 01:19:09;;;;;;;5.82;3.22;;;1.00;99.90;;;;;;2112707;67;20249;-75
2022/01/08 01:21:53;;;;;;;5.20;3.00;;;1.10;99.90;;;;;;2116800;67;20290;-75
2022/01/08 01:24:38;;;;;;;5.60;3.30;;;1.10;99.90;;;;;;2126104;67;20298;-74
2022/01/08 01:30:14;;;;;;;4.50;3.00;;;1.20;99.90;;;;;;2147132;66;20739;-74
2022/01/08 01:47:45;;;;;;;6.68;3.28;;;1.10;99.90;;;;;;2163057;66;20223;-73
2022/01/08 01:50:27;;;;;;;7.65;4.05;;;1.10;99.90;;;;;;2162679;66;20309;-73
2022/01/08 01:53:09;;;;;;;6.72;3.75;;;1.00;99.90;;;;;;2157946;66;20366;-74
2022/01/08 01:55:51;;;;;;;9.95;3.88;;;1.00;99.90;;;;;;2137501;66;20421;-73
2022/01/08 01:58:33;;;;;;;6.75;3.53;;;1.10;99.90;;;;;;2119785;67;20271;-73
2022/01/08 02:01:15;;;;;;;10.68;3.58;;;1.10;99.90;;;;;;2127279;67;20356;-73
2022/01/08 02:03:57;;;;;;;7.97;3.70;;;1.10;99.90;;;;;;2132718;67;20372;-73
2022/01/08 02:06:39;;;;;;;8.77;3.45;;;1.10;99.90;;;;;;2141714;66;20670;-74
2022/01/08 02:09:21;;;;;;;8.00;2.85;;;1.30;99.90;;;;;;2146880;66;20181;-73
2022/01/08 02:12:05;;;;;;;5.35;3.22;;;1.10;99.90;;;;;;2159709;66;20278;-73
2022/01/08 02:14:47;;;;;;;5.72;3.60;;;1.10;99.90;;;;;;2145575;66;20861;-74
2022/01/08 02:17:30;;;;;;;5.43;3.17;;;1.10;99.90;;;;;;2153655;66;20225;-73
2022/01/08 02:20:15;;;;;;;7.75;3.42;;;1.10;99.90;;;;;;2160807;66;20378;-74
2022/01/08 02:22:57;;;;;;;10.90;5.40;;;1.10;99.90;;;;;;2160369;66;20760;-73
2022/01/08 02:25:39;;;;;;;12.13;4.85;;;1.10;99.90;;;;;;2160908;66;20192;-72
2022/01/08 02:28:22;;;;;;;6.72;3.95;;;1.00;99.90;;;;;;2159600;66;20400;-74
2022/01/08 02:31:03;;;;;;;5.68;2.50;;;1.20;99.90;;;;;;2154219;66;20257;-72
2022/01/08 02:33:45;;;;;;;6.03;3.00;;;1.10;99.90;;;;;;2154509;66;20240;-73
2022/01/08 02:36:27;;;;;;;5.50;3.15;;;1.00;99.90;;;;;;2160194;66;20260;-74
2022/01/08 02:39:09;;;;;;;4.70;3.03;;;1.00;99.90;;;;;;2159342;66;20203;-73
2022/01/08 02:41:55;;;;;;;6.70;2.60;;;1.00;99.90;;;;;;2145042;66;20422;-74
2022/01/08 02:44:39;;;;;;;5.10;2.38;;;1.00;99.90;;;;;;2153708;66;20686;-73
2022/01/08 02:47:23;;;;;;;4.65;2.50;;;1.00;99.90;;;;;;2153425;66;20285;-74
2022/01/08 02:50:06;;;;;;;5.97;2.50;;;1.00;99.90;;;;;;2146100;66;20301;-74
2022/01/08 02:52:47;;;;;;;5.10;2.58;;;1.10;99.90;;;;;;2161917;66;20357;-74
2022/01/08 02:55:29;;;;;;;7.40;2.67;;;1.20;99.90;;;;;;2162599;66;20279;-73
2022/01/08 02:58:11;;;;;;;4.05;2.20;;;1.20;99.90;;;;;;2155827;66;20295;-73
2022/01/08 03:00:53;;;;;;;7.63;3.25;;;1.20;99.90;;;;;;2163018;66;20180;-72
2022/01/08 03:03:35;;;;;;;4.00;2.28;;;1.10;99.90;;;;;;2163615;66;20188;-73
2022/01/08 03:06:17;;;;;;;3.50;1.98;;;1.10;99.90;;;;;;2160554;66;20262;-72
2022/01/08 03:08:59;;;;;;;5.93;2.58;;;1.00;99.90;;;;;;2162940;66;20377;-74
2022/01/08 03:11:42;;;;;;;6.68;2.08;;;0.90;99.90;;;;;;2151795;66;20202;-73
2022/01/08 03:14:24;;;;;;;4.88;2.40;;;0.80;99.90;;;;;;2154847;66;20278;-74
2022/01/08 03:17:06;;;;;;;7.63;2.80;;;0.80;99.90;;;;;;2154269;66;20514;-72
2022/01/08 03:19:54;;;;;;;6.07;2.50;;;0.80;99.90;;;;;;2153731;66;20217;-74
2022/01/08 03:22:40;;;;;;;7.45;2.67;;;0.70;99.90;;;;;;2168785;65;20246;-73
2022/01/08 03:25:25;;;;;;;5.07;2.63;;;0.70;99.90;;;;;;2161891;66;20241;-73
2022/01/08 03:28:11;;;;;;;3.70;2.10;;;0.60;99.90;;;;;;2153781;66;20258;-73
2022/01/08 03:30:53;;;;;;;3.28;2.60;;;0.60;99.90;;;;;;2145273;66;20257;-75
2022/01/08 03:33:34;;;;;;;4.68;2.00;;;0.60;99.90;;;;;;2153058;66;20177;-74
2022/01/08 03:36:18;;;;;;;4.57;2.40;;;0.60;99.90;;;;;;2152766;66;20244;-74
2022/01/08 03:39:00;;;;;;;4.68;2.63;;;0.60;99.90;;;;;;2144746;66;20645;-74
2022/01/08 03:41:44;;;;;;;6.20;2.90;;;0.60;99.90;;;;;;2144708;66;20348;-73
2022/01/08 03:44:26;;;;;;;4.50;2.38;;;0.50;99.90;;;;;;2160621;66;20324;-74
2022/01/08 03:50:08;;;;;;;8.68;2.58;;;0.50;99.90;;;;;;2153125;66;20413;-74
2022/01/08 03:52:50;;;;;;;4.40;1.95;;;0.50;99.90;;;;;;2155254;66;20369;-74
2022/01/08 03:55:31;;;;;;;8.05;2.25;;;0.50;99.90;;;;;;2151929;66;20693;-73
2022/01/08 03:58:13;;;;;;;5.20;2.30;;;0.50;99.90;;;;;;2160684;66;20197;-74
2022/01/08 04:00:55;;;;;;;5.50;2.38;;;0.50;99.90;;;;;;2152638;66;20229;-74
2022/01/08 04:03:37;;;;;;;5.88;2.47;;;0.50;99.90;;;;;;2146258;66;20296;-75
2022/01/08 04:06:22;;;;;;;5.00;2.85;;;0.50;99.90;;;;;;2160825;66;20236;-73
2022/01/08 04:09:04;;;;;;;7.25;3.08;;;0.50;99.90;;;;;;2159988;66;20268;-74
2022/01/08 04:11:46;;;;;;;4.20;2.95;;;0.50;99.90;;;;;;2153626;66;20217;-74
2022/01/08 04:14:47;;;;;;;7.22;1.70;;;0.50;99.90;;;;;;2167592;66;20192;-74
2022/01/08 04:17:31;;;;;;;6.85;2.25;;;0.80;99.90;;;;;;2169671;65;20206;-75
2022/01/08 04:20:13;;;;;;;7.50;2.40;;;0.40;99.90;;;;;;2154935;66;20361;-74
2022/01/08 04:22:55;;;;;;;7.28;2.33;;;0.40;99.90;;;;;;2171181;65;20193;-74
2022/01/08 04:25:40;;;;;;;5.88;2.10;;;0.50;99.90;;;;;;2175707;65;20357;-74
2022/01/08 04:28:22;;;;;;;5.57;1.70;;;0.50;99.90;;;;;;2181660;65;20344;-74
2022/01/08 04:31:04;;;;;;;5.68;2.15;;;0.50;99.90;;;;;;2188234;65;20200;-73
2022/01/08 04:33:46;;;;;;;5.18;2.15;;;0.50;99.90;;;;;;2175416;65;20375;-76
2022/01/08 04:36:33;;;;;;;7.93;2.65;;;0.60;99.90;;;;;;2175466;65;20216;-75
2022/01/08 04:39:17;;;;;;;5.22;2.88;;;0.60;99.90;;;;;;2169225;65;20213;-73
2022/01/08 04:42:00;;;;;;;4.20;2.13;;;0.70;99.90;;;;;;2170802;65;20852;-73
2022/01/08 04:44:45;;;;;;;;;;;0.70;99.90;;;;;;2186675;65;20276;-75
2022/01/08 04:47:26;;;;;;;5.20;2.13;;;0.70;99.90;;;;;;2190047;65;20273;-74
2022/01/08 04:50:12;;;;;;;4.40;1.90;;;0.70;99.90;;;;;;2181930;65;20263;-75
2022/01/08 04:52:54;;;;;;;7.78;2.30;;;0.70;99.90;;;;;;2162022;66;20184;-74
2022/01/08 04:55:36;;;;;;;5.22;2.10;;;0.80;99.90;;;;;;2166910;65;20474;-74
2022/01/08 04:58:17;;;;;;;6.53;2.40;;;0.80;99.90;;;;;;2176901;65;20623;-75
2022/01/08 05:00:59;;;;;;;3.75;2.65;;;0.80;99.90;;;;;;2166181;66;20255;-75
2022/01/08 05:03:40;;;;;;;4.22;2.47;;;0.80;99.90;;;;;;2175636;65;20421;-74
2022/01/08 05:06:22;;;;;;;6.63;2.88;;;0.90;99.90;;;;;;2175096;65;20475;-75
2022/01/08 05:09:05;;;;;;;6.97;2.63;;;1.10;99.90;;;;;;2168428;65;20321;-73
2022/01/08 05:11:50;;;;;;;7.05;2.08;;;1.00;99.90;;;;;;2185334;65;20398;-73
2022/01/08 05:14:32;;;;;;;6.90;2.40;;;1.00;99.90;;;;;;2198717;65;20793;-74
2022/01/08 05:17:14;;;;;;;9.40;3.15;;;1.10;99.90;;;;;;2198980;65;20315;-74
2022/01/08 05:19:59;;;;;;;5.80;2.30;;;1.10;99.90;;;;;;2183816;65;20683;-73
2022/01/08 05:25:30;;;;;;;3.75;2.28;;;1.10;99.90;;;;;;2169527;65;20698;-73
2022/01/08 05:28:12;;;;;;;6.93;2.60;;;1.00;99.90;;;;;;2161084;66;20190;-73
2022/01/08 05:30:53;;;;;;;8.45;3.22;;;0.90;99.90;;;;;;2166570;65;20208;-74
2022/01/08 05:33:35;;;;;;;3.90;2.20;;;1.00;99.90;;;;;;2155013;66;20258;-73
2022/01/08 05:36:16;;;;;;;5.90;2.30;;;0.90;99.90;;;;;;2153836;66;20364;-74
2022/01/08 05:39:00;;;;;;;10.88;5.53;;;1.00;99.90;;;;;;2149828;66;20306;-74
2022/01/08 05:41:51;;;;;;;;;;;0.90;99.90;;;;;;2148142;66;20229;-74
2022/01/08 05:44:34;;;;;;;4.47;3.60;;;0.90;99.90;;;;;;2153554;66;20057;-74
2022/01/08 05:47:15;;;;;;;6.30;4.43;;;0.90;99.90;;;;;;2161143;66;20844;-73
2022/01/08 05:49:57;;;;;;;6.80;4.93;;;1.00;99.90;;;;;;2155288;66;20257;-74
2022/01/08 05:52:39;;;;;;;7.03;3.38;;;1.00;99.90;;;;;;2143708;66;20675;-73
2022/01/08 05:55:21;;;;;;;7.50;3.97;;;1.00;99.90;;;;;;2144775;66;20204;-75
2022/01/08 05:58:05;;;;;;;5.78;3.25;;;1.00;99.90;;;;;;2145762;66;20279;-73
2022/01/08 06:00:50;;;;;;;7.85;3.10;;;1.10;99.90;;;;;;2158613;66;20169;-74
2022/01/08 06:03:35;;;;;;;4.18;2.40;;;0.90;99.90;;;;;;2154112;66;20232;-74
2022/01/08 06:06:21;;;;;;;7.10;3.45;;;0.90;99.90;;;;;;2153574;66;20323;-74
2022/01/08 06:09:05;;;;;;;3.67;1.92;;;0.90;99.90;;;;;;2145597;66;20414;-75
2022/01/08 06:11:47;;;;;;;5.65;2.17;;;0.80;99.90;;;;;;2139373;66;20808;-74
2022/01/08 06:14:29;;;;;;;4.13;2.00;;;0.80;99.90;;;;;;2146135;66;20695;-74
2022/01/08 06:17:11;;;;;;;5.15;2.10;;;0.80;99.90;;;;;;2148401;66;20627;-74
2022/01/08 06:19:53;;;;;;;7.10;2.25;;;0.80;99.90;;;;;;2146999;66;20780;-74
2022/01/08 06:22:35;;;;;;;8.35;2.95;;;0.80;99.90;;;;;;2145895;66;20241;-74
2022/01/08 06:25:16;;;;;;;5.63;2.60;;;0.80;99.90;;;;;;2133691;66;20435;-74
2022/01/08 06:28:01;;;;;;;5.47;3.00;;;0.80;99.90;;;;;;2140404;66;20403;-74
2022/01/08 06:30:44;;;;;;;7.40;3.25;;;0.80;99.90;;;;;;2156603;66;20278;-74
2022/01/08 06:33:29;;;;;;;10.75;3.70;;;0.70;99.90;;;;;;2155636;66;20177;-74
2022/01/08 06:36:10;;;;;;;7.95;3.40;;;0.70;99.90;;;;;;2152671;66;20737;-75
2022/01/08 06:38:55;;;;;;;12.68;4.55;;;0.70;99.90;;;;;;2145179;66;20215;-75
2022/01/08 06:41:36;;;;;;;8.30;3.72;;;0.60;99.90;;;;;;2158179;66;20455;-73
2022/01/08 06:44:21;;;;;;;8.25;4.40;;;0.60;99.90;;;;;;2152918;66;20182;-74
2022/01/08 06:47:04;;;;;;;10.85;4.28;;;0.60;99.90;;;;;;2157731;66;20824;-74
2022/01/08 06:49:47;;;;;;;8.40;4.57;;;0.60;99.90;;;;;;2154995;66;20282;-73
2022/01/08 06:52:53;;;;;;;8.23;4.70;;;0.60;99.90;;;;;;2163708;66;20255;-74
2022/01/08 06:55:35;;;;;;;15.75;5.85;;;0.60;99.90;;;;;;2171136;65;20461;-75
2022/01/08 06:58:20;;;;;;;10.65;5.25;;;0.60;99.90;;;;;;2180202;65;20270;-74
2022/01/08 07:01:03;;;;;;;12.93;5.78;;;0.50;99.90;;;;;;2177198;65;20263;-75
2022/01/08 07:03:46;;;;;;;;;;;0.50;99.90;;;;;;2198599;65;20297;-75
2022/01/08 07:06:28;;;;;;;14.50;5.68;;;0.50;99.90;;;;;;2203576;65;20134;-74
2022/01/08 07:09:12;;;;;;;13.85;6.43;;;0.50;99.90;;;;;;2183229;65;20222;-75
2022/01/08 07:11:59;;;;;;;12.15;5.90;;;0.50;99.90;;;;;;2172494;65;20204;-75
2022/01/08 07:14:41;;;;;;;13.52;7.22;;;0.50;99.90;;;;;;2174401;65;20762;-75
2022/01/08 07:17:23;;;;;;;12.05;7.40;;;0.60;99.90;;;;;;2174131;65;20705;-74
2022/01/08 07:20:08;;;;;;;12.10;5.97;;;0.60;99.90;;;;;;2162822;66;20211;-75
2022/01/08 07:22:49;;;;;;;13.80;6.38;;;0.60;99.90;;;;;;2156030;66;20331;-74
2022/01/08 07:25:32;;;;;;;10.35;6.05;;;0.60;99.90;;;;;;2156017;66;20334;-76
2022/01/08 07:28:14;;;;;;;11.60;6.00;;;0.60;99.90;;;;;;2153912;66;20274;-76
2022/01/08 07:30:55;;;;;;;13.07;5.95;;;0.60;99.90;;;;;;2158454;66;20247;-75
2022/01/08 07:33:49;;;;;;;15.15;6.47;;;0.60;99.90;;;;;;2153355;66;20712;-76
2022/01/08 07:36:43;;;;;;;12.50;5.93;;;0.60;99.90;;;;;;2160303;66;20314;-75
2022/01/08 07:39:28;;;;;;;14.80;6.23;;;0.60;99.90;;;;;;2175981;65;20679;-75
2022/01/08 07:42:13;;;;;;;11.77;5.82;;;0.60;99.90;;;;;;2170545;65;20203;-75
2022/01/08 07:44:54;;;;;;;14.52;5.40;;;0.60;99.90;;;;;;2174411;65;20385;-75
2022/01/08 07:47:39;;;;;;;12.93;6.32;;;0.60;99.90;;;;;;2150508;66;20809;-75
2022/01/08 07:50:22;;;;;;;14.13;4.93;;;0.60;99.90;;;;;;2156433;66;20308;-75
2022/01/08 07:53:05;;;;;;;10.50;4.95;;;0.70;99.90;;;;;;2177788;65;20187;-76
2022/01/08 07:55:47;;;;;;;18.38;5.35;;;0.70;99.90;;;;;;2169709;65;20316;-74
2022/01/08 07:58:29;;;;;;;12.23;5.32;;;0.70;99.90;;;;;;2159201;66;20185;-75
2022/01/08 08:01:11;;;;;;;12.35;5.25;;;0.30;99.90;;;;;;2162770;66;20205;-76
2022/01/08 08:03:54;;;;;;;14.27;5.38;;;0.70;99.90;;;;;;2167002;66;20309;-76
2022/01/08 08:06:44;;;;;;;13.50;5.00;;;0.70;99.90;;;;;;2166882;66;20354;-76
2022/01/08 08:09:26;;;;;;;10.00;5.50;;;0.70;99.90;;;;;;2168627;65;20913;-79
2022/01/08 08:12:08;;;;;;;11.13;5.20;;;0.70;99.90;;;;;;2179408;65;20163;-75
2022/01/08 08:14:51;;;;;;;11.60;4.70;;;0.70;99.90;;;;;;2169225;65;20251;-77
2022/01/08 08:17:33;;;;;;;8.40;5.10;;;0.70;99.90;;;;;;2169736;65;20160;-75
2022/01/08 08:20:14;;;;;;;11.18;5.45;;;0.70;99.90;;;;;;2176867;65;20314;-75
2022/01/08 08:22:56;;;;;;;8.52;4.93;;;0.70;99.90;;;;;;2178145;65;20267;-76
2022/01/08 08:25:40;;;;;;;10.07;4.43;;;0.70;99.90;;;;;;2184366;65;20494;-75
2022/01/08 08:28:24;;;;;;;12.20;4.63;;;0.80;99.90;;;;;;2191538;65;20232;-76
2022/01/08 08:31:05;;;;;;;9.40;4.95;;;0.90;99.90;;;;;;2184132;65;20451;-76
2022/01/08 08:33:47;;;;;;;11.63;4.95;;;0.90;99.90;;;;;;2176350;65;20320;-75
2022/01/08 08:36:31;;;;;;;7.95;5.03;;;1.00;99.90;;;;;;2169212;65;20193;-74
2022/01/08 08:39:15;;;;;;;;;;;1.00;99.90;;;;;;2176815;65;20176;-75
2022/01/08 08:41:58;;;;;;;9.80;4.35;;;1.10;99.90;;;;;;2183802;65;20197;-75
2022/01/08 08:44:42;;;;;;;9.07;4.03;;;1.10;99.90;;;;;;2175281;65;20506;-75
2022/01/08 08:47:25;;;;;;;10.40;3.90;;;1.10;99.90;;;;;;2169632;65;20251;-76
2022/01/08 08:50:12;;;;;;;10.13;4.55;;;1.20;99.90;;;;;;2154418;66;20640;-77
2022/01/08 08:52:55;;;;;;;8.45;4.47;;;1.20;99.90;;;;;;2168978;65;20168;-76
2022/01/08 08:55:36;;;;;;;10.40;4.13;;;1.20;99.90;;;;;;2176322;65;20816;-75
2022/01/08 08:58:20;;;;;;;11.13;4.82;;;1.20;99.90;;;;;;2185009;65;20207;-75
2022/01/08 09:01:04;;;;;;;;;;;1.30;99.90;;;;;;2184192;65;20201;-74
2022/01/08 09:03:47;;;;;;;12.48;4.28;;;1.30;99.90;;;;;;2173799;65;20113;-75
2022/01/08 09:06:30;;;;;;;7.80;3.92;;;1.40;99.90;;;;;;2161855;66;20854;-75
2022/01/08 09:09:11;;;;;;;9.05;4.50;;;1.40;99.90;;;;;;2180906;65;20332;-75
2022/01/08 09:11:53;;;;;;;5.85;4.85;;;1.70;99.90;;;;;;2178266;65;20718;-74
2022/01/08 09:14:35;;;;;;;8.00;4.03;;;1.40;99.90;;;;;;2165317;66;20192;-73
2022/01/08 09:17:17;;;;;;;11.55;4.85;;;1.40;99.90;;;;;;2172900;65;20255;-75
2022/01/08 09:19:59;;;;;;;9.93;4.75;;;1.50;99.90;;;;;;2179404;65;20214;-74
2022/01/08 09:22:42;;;;;;;9.70;4.03;;;1.60;99.90;;;;;;2178132;65;20562;-76
2022/01/08 09:25:23;;;;;;;7.13;4.97;;;1.70;99.90;;;;;;2179423;65;20655;-75
2022/01/08 09:28:06;;;;;;;8.93;4.35;;;1.80;99.90;;;;;;2154561;66;20225;-75
2022/01/08 09:30:50;;;;;;;8.67;4.60;;;1.90;99.90;;;;;;2166728;66;20763;-75
2022/01/08 09:33:33;;;;;;;10.50;4.25;;;2.10;99.90;;;;;;2190860;65;20214;-74
2022/01/08 09:36:16;;;;;;;7.95;4.00;;;2.10;99.90;;;;;;2183715;65;20308;-74
2022/01/08 09:39:03;;;;;;;8.82;3.85;;;2.20;99.90;;;;;;2176270;65;20752;-75
2022/01/08 09:41:48;;;;;;;13.13;4.57;;;2.20;99.90;;;;;;2189472;65;20251;-75
2022/01/08 09:44:33;;;;;;;5.97;3.33;;;2.20;99.90;;;;;;2190794;65;20254;-75
2022/01/08 09:47:16;;;;;;;9.20;3.75;;;2.30;99.90;;;;;;2172471;65;20466;-76
2022/01/08 09:50:02;;;;;;;5.35;3.03;;;1.80;99.90;;;;;;2183523;65;20641;-76
2022/01/08 09:52:43;;;;;;;8.23;3.53;;;2.30;99.90;;;;;;2168107;66;20197;-75
2022/01/08 09:55:29;;;;;;;12.32;4.20;;;2.40;99.90;;;;;;2176211;65;20597;-75
2022/01/08 09:58:11;;;;;;;;;;;2.40;99.90;;;;;;2169869;65;20405;-76
2022/01/08 10:00:54;;;;;;;8.52;3.67;;;2.50;99.90;;;;;;2168077;66;20048;-75
2022/01/08 10:03:44;;;;;;;8.40;2.85;;;2.60;99.90;;;;;;2184795;65;20239;-75
2022/01/08 10:06:28;;;;;;;9.70;3.60;;;3.40;99.90;;;;;;2185200;65;20170;-75
2022/01/08 10:09:10;;;;;;;6.93;3.25;;;2.70;99.90;;;;;;2185898;65;20230;-74
2022/01/08 10:11:53;;;;;;;10.13;4.03;;;2.80;99.90;;;;;;2183962;65;20281;-75
2022/01/08 10:17:13;;;;;;;8.10;3.03;;;2.80;99.90;;;;;;2186009;65;20178;-75
2022/01/08 10:17:44;;;;;;;7.28;3.60;;;2.90;99.90;;;;;;2181962;65;20296;-75
2022/01/08 10:20:37;;;;;;;7.03;3.10;;;2.90;99.90;;;;;;2170861;65;20169;-75
2022/01/08 10:23:45;;;;;;;8.90;3.28;;;2.90;99.90;;;;;;2168827;65;20222;-76
2022/01/08 10:26:33;;;;;;;6.33;3.03;;;2.90;99.90;;;;;;2164842;66;20350;-77
2022/01/08 10:29:21;;;;;;;7.97;3.20;;;3.00;99.90;;;;;;2153896;66;20400;-77
2022/01/08 10:32:08;;;;;;;8.75;3.30;;;3.10;99.90;;;;;;2161746;66;20628;-74
2022/01/08 10:34:52;;;;;;;7.00;2.70;;;3.10;99.90;;;;;;2171683;65;20231;-74
2022/01/08 10:37:53;;;;;;;7.97;3.25;;;3.30;99.90;;;;;;2160820;66;20308;-76
2022/01/08 10:40:37;;;;;;;8.20;3.80;;;3.30;99.90;;;;;;2166409;66;20308;-75
2022/01/08 10:43:25;;;;;;;7.18;3.20;;;3.30;99.90;;;;;;2161242;66;20645;-77
2022/01/08 10:46:16;;;;;;;8.30;3.22;;;3.30;99.90;;;;;;2157478;66;20338;-75
2022/01/08 10:48:59;;;;;;;6.45;3.00;;;3.30;99.90;;;;;;2156728;66;20383;-77
2022/01/08 10:51:51;;;;;;;7.82;3.17;;;2.80;99.90;;;;;;2153050;66;20324;-77
2022/01/08 10:54:41;;;;;;;7.53;3.53;;;3.40;99.90;;;;;;2149288;66;20169;-76
2022/01/08 10:57:39;;;;;;;8.73;4.07;;;3.50;99.90;;;;;;2173199;65;20276;-76
2022/01/08 11:00:36;;;;;;;7.57;3.85;;;4.30;99.90;;;;;;2188317;65;20334;-77
2022/01/08 11:03:41;;;;;;;6.75;3.65;;;3.30;99.90;;;;;;2200338;65;20316;-75
2022/01/08 11:06:24;;;;;;;10.65;3.75;;;3.30;99.90;;;;;;2194050;65;20356;-75
2022/01/08 11:09:08;;;;;;;10.23;4.60;;;3.40;99.90;;;;;;2204731;65;20774;-75
2022/01/08 11:11:55;;;;;;;6.47;3.88;;;3.20;99.90;;;;;;2199440;65;20314;-74
2022/01/08 11:14:48;;;;;;;9.40;4.63;;;3.10;99.90;;;;;;2188798;65;20402;-76
2022/01/08 11:17:51;;;;;;;8.73;3.95;;;3.20;99.90;;;;;;2210038;64;20872;-76
2022/01/08 11:20:33;;;;;;;5.57;4.40;;;3.30;99.90;;;;;;2196906;65;20311;-76
2022/01/08 11:23:22;;;;;;;10.70;5.30;;;3.30;99.90;;;;;;2180104;65;20183;-75
2022/01/08 11:26:14;;;;;;;8.45;5.22;;;3.50;99.90;;;;;;2177137;65;20257;-76
2022/01/08 11:29:01;;;;;;;15.00;6.78;;;3.50;99.90;;;;;;2156021;66;20711;-75
2022/01/08 11:31:49;;;;;;;12.32;4.68;;;3.50;99.90;;;;;;2149583;66;20248;-75
2022/01/08 11:34:32;;;;;;;11.98;5.05;;;3.60;99.90;;;;;;2146806;66;20258;-76
2022/01/08 11:37:14;;;;;;;10.60;5.68;;;3.70;99.90;;;;;;2157212;65;20256;-76
2022/01/08 11:39:58;;;;;;;8.05;5.75;;;3.70;99.90;;;;;;2175134;65;20296;-75
2022/01/08 11:42:40;;;;;;;8.88;5.32;;;3.80;99.90;;;;;;2168417;65;20187;-75
2022/01/08 11:45:34;;;;;;;10.82;4.68;;;3.80;99.90;;;;;;2176693;65;20249;-76
2022/01/08 11:48:20;;;;;;;10.07;5.20;;;3.90;99.90;;;;;;2175304;65;20332;-75
2022/01/08 11:51:04;;;;;;;9.15;4.25;;;3.90;99.90;;;;;;2176264;65;20216;-76
2022/01/08 11:53:46;;;;;;;10.75;5.35;;;3.80;99.90;;;;;;2167664;65;20589;-75
2022/01/08 11:56:39;;;;;;;11.60;5.10;;;3.90;99.90;;;;;;2163092;65;20286;-76
2022/01/08 11:59:29;;;;;;;7.43;4.53;;;3.90;99.90;;;;;;2168808;65;20300;-75
2022/01/08 12:02:14;;;;;;;13.00;5.18;;;4.10;99.90;;;;;;2183818;65;20250;-76
2022/01/08 12:04:58;;;;;;;7.97;5.10;;;4.00;99.90;;;;;;2171725;65;20190;-75
2022/01/08 12:07:46;;;;;;;11.50;5.30;;;3.90;99.90;;;;;;2173743;65;20321;-76
2022/01/08 12:10:31;;;;;;;9.85;5.65;;;4.00;99.90;;;;;;2165806;65;20203;-76
2022/01/08 12:13:13;;;;;;;7.88;5.68;;;4.00;99.90;;;;;;2151617;66;20341;-76
2022/01/08 12:15:55;;;;;;;11.73;5.28;;;4.00;99.90;;;;;;2126762;66;20285;-76
2022/01/08 12:18:53;;;;;;;8.50;5.20;;;4.00;99.90;;;;;;2138711;66;20283;-76
2022/01/08 12:21:43;;;;;;;10.00;5.55;;;4.00;99.90;;;;;;2147114;66;20209;-75
2022/01/08 12:24:30;;;;;;;9.95;5.65;;;4.00;99.90;;;;;;2160647;66;20778;-76
2022/01/08 12:27:39;;;;;;;9.88;6.22;;;3.90;99.90;;;;;;2163488;66;20288;-75
2022/01/08 12:30:38;;;;;;;11.00;5.95;;;4.00;99.90;;;;;;2170654;65;20369;-77
2022/01/08 12:33:20;;;;;;;7.65;5.65;;;4.00;99.90;;;;;;2159319;66;20203;-76
2022/01/08 12:36:31;;;;;;;14.32;7.13;;;4.00;99.90;;;;;;2158767;66;20314;-74
2022/01/08 12:39:15;;;;;;;10.38;6.22;;;4.00;99.90;;;;;;2155500;66;20456;-76
2022/01/08 12:42:27;;;;;;;13.80;6.82;;;4.00;99.90;;;;;;2172256;65;20762;-76
2022/01/08 12:45:08;;;;;;;11.88;6.95;;;4.00;99.90;;;;;;2177676;65;20759;-75
2022/01/08 12:48:00;;;;;;;11.15;8.02;;;4.10;99.90;;;;;;2176532;65;20291;-75
2022/01/08 12:50:44;;;;;;;15.13;8.02;;;4.00;99.90;;;;;;2149596;66;20289;-75
2022/01/08 12:53:30;;;;;;;12.75;7.57;;;4.10;99.90;;;;;;2151509;66;20225;-76
2022/01/08 12:56:13;;;;;;;12.10;8.63;;;4.00;99.90;;;;;;2145101;66;20347;-76
2022/01/08 12:58:56;;;;;;;10.90;9.05;;;4.00;99.90;;;;;;2141914;66;20224;-76
2022/01/08 13:01:40;;;;;;;13.13;8.77;;;4.20;99.90;;;;;;2148874;66;20249;-75
2022/01/08 13:04:25;;;;;;;18.25;9.27;;;4.00;99.90;;;;;;2153755;66;20344;-75
2022/01/08 13:07:06;;;;;;;13.27;10.05;;;4.10;99.90;;;;;;2151484;66;20253;-77
2022/01/08 13:09:58;;;;;;;11.93;8.07;;;4.00;99.90;;;;;;2151413;66;20355;-75
2022/01/08 13:12:41;;;;;;;15.20;10.10;;;4.00;99.90;;;;;;2158413;66;20447;-76
2022/01/08 13:15:28;;;;;;;16.67;10.80;;;4.00;99.90;;;;;;2150951;66;20405;-77
2022/01/08 13:18:39;;;;;;;12.70;9.68;;;4.00;99.90;;;;;;2136387;66;20358;-76
2022/01/08 13:21:22;;;;;;;16.45;10.15;;;4.00;99.90;;;;;;2139883;66;20419;-77
2022/01/08 13:24:19;;;;;;;15.30;9.77;;;4.00;99.90;;;;;;2145690;66;20288;-77
2022/01/08 13:27:24;;;;;;;13.63;11.23;;;4.10;99.90;;;;;;2133847;66;20320;-75
2022/01/08 13:30:16;;;;;;;15.70;10.75;;;4.00;99.90;;;;;;2130631;67;20376;-75
2022/01/08 13:33:13;;;;;;;11.90;9.98;;;4.00;99.90;;;;;;2144004;66;20221;-74
2022/01/08 13:36:18;;;;;;;14.65;10.10;;;4.00;99.90;;;;;;2138605;66;20246;-76
2022/01/08 13:39:04;;;;;;;15.00;10.10;;;4.00;99.90;;;;;;2134566;66;20311;-75
2022/01/08 13:41:46;;;;;;;16.83;10.00;;;3.90;99.90;;;;;;2129187;67;20801;-77
2022/01/08 13:44:31;;;;;;;16.15;10.38;;;3.90;99.90;;;;;;2122292;67;20688;-75
2022/01/08 13:47:22;;;;;;;14.55;10.15;;;4.00;99.90;;;;;;2121020;67;20172;-75
2022/01/08 13:50:06;;;;;;;14.20;9.85;;;3.90;99.90;;;;;;2121977;67;20816;-75
2022/01/08 13:53:00;;;;;;;14.57;10.38;;;3.90;99.90;;;;;;2134768;66;20309;-75
2022/01/08 13:55:47;;;;;;;12.68;9.45;;;3.90;99.90;;;;;;2147821;66;20195;-77
2022/01/08 13:58:32;;;;;;;13.82;10.52;;;4.20;99.90;;;;;;2140932;66;20221;-75
2022/01/08 14:01:19;;;;;;;15.05;10.90;;;3.90;99.90;;;;;;2117464;67;20211;-75
2022/01/08 14:04:01;;;;;;;15.57;10.45;;;3.80;99.90;;;;;;2121885;67;20329;-76
2022/01/08 14:06:44;;;;;;;12.52;9.70;;;3.80;99.90;;;;;;2126751;67;20500;-75
2022/01/08 14:09:27;;;;;;;12.57;9.35;;;3.80;99.90;;;;;;2127410;67;20442;-75
2022/01/08 14:12:14;;;;;;;12.20;9.48;;;3.80;99.90;;;;;;2139281;66;20201;-76
2022/01/08 14:15:02;;;;;;;13.63;10.60;;;3.80;99.90;;;;;;2136544;66;20739;-75
2022/01/08 14:17:44;;;;;;;13.02;9.45;;;3.80;99.90;;;;;;2121417;67;20172;-74
2022/01/08 14:20:30;;;;;;;13.95;9.57;;;3.70;99.90;;;;;;2127878;66;20182;-76
2022/01/08 14:23:17;;;;;;;15.98;10.40;;;3.60;99.90;;;;;;2124426;67;20641;-74
2022/01/08 14:26:15;;;;;;;12.85;9.93;;;3.60;99.90;;;;;;2115765;67;20236;-74
2022/01/08 14:29:09;;;;;;;14.30;10.30;;;3.60;99.90;;;;;;2126674;67;20809;-73
2022/01/08 14:31:55;;;;;;;18.70;10.85;;;3.50;99.90;;;;;;2130498;67;20216;-73
2022/01/08 14:35:07;;;;;;;17.73;10.88;;;3.40;99.90;;;;;;2130974;67;20385;-74
2022/01/08 14:38:00;;;;;;;19.42;10.88;;;3.30;99.90;;;;;;2122864;67;20314;-75
2022/01/08 14:40:46;;;;;;;12.90;8.80;;;3.30;99.90;;;;;;2122101;67;20200;-74
2022/01/08 14:43:28;;;;;;;11.73;9.10;;;3.20;99.90;;;;;;2135434;67;20609;-73
2022/01/08 14:46:13;;;;;;;12.65;8.90;;;3.10;99.90;;;;;;2127129;67;20271;-73
2022/01/08 14:48:56;;;;;;;16.67;9.07;;;3.00;99.90;;;;;;2129296;67;20233;-75
2022/01/08 14:51:40;;;;;;;16.77;9.00;;;3.00;99.90;;;;;;2137263;66;20183;-74